sensor_id;sensor_type;location;lat;lon;timestamp;P1;durP1;ratioP1;P2;durP2;ratioP2
79668;SDS011;69136;52.614;6.976;2023-06-14T00:01:24;3.30;;;1.98;;
79668;SDS011;69136;52.614;6.976;2023-06-14T00:04:08;5.00;;;2.00;;
79668;SDS011;69136;52.614;6.976;2023-06-14T00:06:54;5.15;;;2.42;;
79668;SDS011;69136;52.614;6.976;2023-06-14T00:09:40;4.70;;;2.10;;
79668;SDS011;69136;52.614;6.976;2023-06-14T00:12:24;8.75;;;1.90;;
79668;SDS011;69136;52.614;6.976;2023-06-14T00:15:08;4.75;;;1.90;;
79668;SDS011;69136;52.614;6.976;2023-06-14T00:17:53;4.00;;;2.03;;
79668;SDS011;69136;52.614;6.976;2023-06-14T00:20:38;4.32;;;2.10;;
79668;SDS011;69136;52.614;6.976;2023-06-14T00:23:23;4.93;;;2.05;;
79668;SDS011;69136;52.614;6.976;2023-06-14T00:26:07;2.97;;;2.25;;
79668;SDS011;69136;52.614;6.976;2023-06-14T00:28:51;3.47;;;1.85;;
79668;SDS011;69136;52.614;6.976;2023-06-14T00:31:36;3.75;;;1.92;;
79668;SDS011;69136;52.614;6.976;2023-06-14T00:34:20;4.38;;;2.15;;
79668;SDS011;69136;52.614;6.976;2023-06-14T00:37:04;3.88;;;1.90;;
79668;SDS011;69136;52.614;6.976;2023-06-14T00:39:48;3.97;;;1.65;;
79668;SDS011;69136;52.614;6.976;2023-06-14T00:42:32;3.97;;;2.15;;
79668;SDS011;69136;52.614;6.976;2023-06-14T00:45:16;4.07;;;2.13;;
79668;SDS011;69136;52.614;6.976;2023-06-14T00:48:00;5.38;;;2.00;;
79668;SDS011;69136;52.614;6.976;2023-06-14T00:50:46;5.47;;;2.20;;
79668;SDS011;69136;52.614;6.976;2023-06-14T00:53:33;4.57;;;2.08;;
79668;SDS011;69136;52.614;6.976;2023-06-14T00:56:19;5.95;;;2.25;;
79668;SDS011;69136;52.614;6.976;2023-06-14T00:59:08;3.58;;;2.20;;
79668;SDS011;69136;52.614;6.976;2023-06-14T01:01:53;4.28;;;2.30;;
79668;SDS011;69136;52.614;6.976;2023-06-14T01:04:37;4.60;;;2.42;;
79668;SDS011;69136;52.614;6.976;2023-06-14T01:07:32;3.88;;;2.03;;
79668;SDS011;69136;52.614;6.976;2023-06-14T01:10:28;4.30;;;1.83;;
79668;SDS011;69136;52.614;6.976;2023-06-14T01:13:19;4.05;;;1.77;;
79668;SDS011;69136;52.614;6.976;2023-06-14T01:16:05;3.25;;;1.92;;
79668;SDS011;69136;52.614;6.976;2023-06-14T01:18:51;2.45;;;1.80;;
79668;SDS011;69136;52.614;6.976;2023-06-14T01:21:36;6.35;;;1.70;;
79668;SDS011;69136;52.614;6.976;2023-06-14T01:24:25;3.63;;;2.00;;
79668;SDS011;69136;52.614;6.976;2023-06-14T01:27:12;2.92;;;1.95;;
79668;SDS011;69136;52.614;6.976;2023-06-14T01:29:57;2.90;;;1.80;;
79668;SDS011;69136;52.614;6.976;2023-06-14T01:32:43;3.20;;;2.25;;
79668;SDS011;69136;52.614;6.976;2023-06-14T01:35:28;4.85;;;2.20;;
79668;SDS011;69136;52.614;6.976;2023-06-14T01:38:12;4.97;;;1.98;;
79668;SDS011;69136;52.614;6.976;2023-06-14T01:40:57;3.75;;;2.38;;
79668;SDS011;69136;52.614;6.976;2023-06-14T01:43:43;6.15;;;2.10;;
79668;SDS011;69136;52.614;6.976;2023-06-14T01:46:29;2.72;;;1.80;;
79668;SDS011;69136;52.614;6.976;2023-06-14T01:49:13;3.58;;;1.98;;
79668;SDS011;69136;52.614;6.976;2023-06-14T01:51:57;3.42;;;2.00;;
79668;SDS011;69136;52.614;6.976;2023-06-14T01:54:41;6.00;;;2.03;;
79668;SDS011;69136;52.614;6.976;2023-06-14T01:57:26;5.57;;;2.03;;
79668;SDS011;69136;52.614;6.976;2023-06-14T02:00:10;3.45;;;2.10;;
79668;SDS011;69136;52.614;6.976;2023-06-14T02:02:59;4.78;;;1.83;;
79668;SDS011;69136;52.614;6.976;2023-06-14T02:05:44;5.05;;;2.30;;
79668;SDS011;69136;52.614;6.976;2023-06-14T02:08:28;5.97;;;1.90;;
79668;SDS011;69136;52.614;6.976;2023-06-14T02:11:12;5.22;;;1.98;;
79668;SDS011;69136;52.614;6.976;2023-06-14T02:13:56;2.88;;;1.60;;
79668;SDS011;69136;52.614;6.976;2023-06-14T02:16:40;5.53;;;2.20;;
79668;SDS011;69136;52.614;6.976;2023-06-14T02:19:32;4.25;;;2.00;;
79668;SDS011;69136;52.614;6.976;2023-06-14T02:22:16;4.70;;;1.90;;
79668;SDS011;69136;52.614;6.976;2023-06-14T02:25:01;3.30;;;1.85;;
79668;SDS011;69136;52.614;6.976;2023-06-14T02:27:45;4.75;;;2.42;;
79668;SDS011;69136;52.614;6.976;2023-06-14T02:30:29;5.10;;;2.10;;
79668;SDS011;69136;52.614;6.976;2023-06-14T02:33:14;5.25;;;2.30;;
79668;SDS011;69136;52.614;6.976;2023-06-14T02:35:58;4.43;;;2.10;;
79668;SDS011;69136;52.614;6.976;2023-06-14T02:38:42;8.82;;;2.63;;
79668;SDS011;69136;52.614;6.976;2023-06-14T02:41:27;2.70;;;1.80;;
79668;SDS011;69136;52.614;6.976;2023-06-14T02:44:12;4.72;;;2.13;;
79668;SDS011;69136;52.614;6.976;2023-06-14T02:46:57;4.57;;;2.03;;
79668;SDS011;69136;52.614;6.976;2023-06-14T02:49:42;4.38;;;2.40;;
79668;SDS011;69136;52.614;6.976;2023-06-14T02:52:26;3.17;;;2.03;;
79668;SDS011;69136;52.614;6.976;2023-06-14T02:55:10;4.97;;;2.03;;
79668;SDS011;69136;52.614;6.976;2023-06-14T02:57:55;3.70;;;2.30;;
79668;SDS011;69136;52.614;6.976;2023-06-14T03:00:39;4.45;;;1.98;;
79668;SDS011;69136;52.614;6.976;2023-06-14T03:03:25;3.88;;;2.28;;
79668;SDS011;69136;52.614;6.976;2023-06-14T03:06:13;3.10;;;2.25;;
79668;SDS011;69136;52.614;6.976;2023-06-14T03:09:02;8.73;;;2.70;;
79668;SDS011;69136;52.614;6.976;2023-06-14T03:11:53;5.80;;;2.35;;
79668;SDS011;69136;52.614;6.976;2023-06-14T03:14:37;5.15;;;2.70;;
79668;SDS011;69136;52.614;6.976;2023-06-14T03:17:22;4.38;;;2.00;;
79668;SDS011;69136;52.614;6.976;2023-06-14T03:20:08;3.80;;;1.98;;
79668;SDS011;69136;52.614;6.976;2023-06-14T03:22:52;3.83;;;1.85;;
79668;SDS011;69136;52.614;6.976;2023-06-14T03:25:39;5.45;;;2.10;;
79668;SDS011;69136;52.614;6.976;2023-06-14T03:28:27;4.97;;;2.20;;
79668;SDS011;69136;52.614;6.976;2023-06-14T03:31:12;5.25;;;2.63;;
79668;SDS011;69136;52.614;6.976;2023-06-14T03:33:58;4.03;;;2.30;;
79668;SDS011;69136;52.614;6.976;2023-06-14T03:36:42;6.18;;;2.05;;
79668;SDS011;69136;52.614;6.976;2023-06-14T03:39:26;3.90;;;2.22;;
79668;SDS011;69136;52.614;6.976;2023-06-14T03:42:10;5.60;;;2.20;;
79668;SDS011;69136;52.614;6.976;2023-06-14T03:44:55;5.50;;;2.05;;
79668;SDS011;69136;52.614;6.976;2023-06-14T03:47:41;4.95;;;2.42;;
79668;SDS011;69136;52.614;6.976;2023-06-14T03:50:26;4.88;;;2.53;;
79668;SDS011;69136;52.614;6.976;2023-06-14T03:53:10;5.80;;;2.53;;
79668;SDS011;69136;52.614;6.976;2023-06-14T03:55:58;4.22;;;2.63;;
79668;SDS011;69136;52.614;6.976;2023-06-14T03:58:50;3.40;;;2.38;;
79668;SDS011;69136;52.614;6.976;2023-06-14T04:01:36;4.35;;;2.80;;
79668;SDS011;69136;52.614;6.976;2023-06-14T04:04:20;6.50;;;4.03;;
79668;SDS011;69136;52.614;6.976;2023-06-14T04:07:05;7.35;;;2.70;;
79668;SDS011;69136;52.614;6.976;2023-06-14T04:09:52;4.45;;;2.30;;
79668;SDS011;69136;52.614;6.976;2023-06-14T04:12:36;4.75;;;2.50;;
79668;SDS011;69136;52.614;6.976;2023-06-14T04:15:20;4.32;;;2.10;;
79668;SDS011;69136;52.614;6.976;2023-06-14T04:18:04;4.80;;;2.30;;
79668;SDS011;69136;52.614;6.976;2023-06-14T04:20:48;3.55;;;2.40;;
79668;SDS011;69136;52.614;6.976;2023-06-14T04:23:32;5.40;;;2.40;;
79668;SDS011;69136;52.614;6.976;2023-06-14T04:26:18;2.67;;;2.08;;
79668;SDS011;69136;52.614;6.976;2023-06-14T04:29:04;5.10;;;2.40;;
79668;SDS011;69136;52.614;6.976;2023-06-14T04:31:55;3.97;;;2.15;;
79668;SDS011;69136;52.614;6.976;2023-06-14T04:34:43;4.55;;;2.63;;
79668;SDS011;69136;52.614;6.976;2023-06-14T04:37:29;5.32;;;2.47;;
79668;SDS011;69136;52.614;6.976;2023-06-14T04:40:14;4.00;;;2.20;;
79668;SDS011;69136;52.614;6.976;2023-06-14T04:43:00;4.05;;;2.08;;
79668;SDS011;69136;52.614;6.976;2023-06-14T04:45:45;4.47;;;2.30;;
79668;SDS011;69136;52.614;6.976;2023-06-14T04:48:30;9.77;;;2.53;;
79668;SDS011;69136;52.614;6.976;2023-06-14T04:51:15;2.97;;;2.28;;
79668;SDS011;69136;52.614;6.976;2023-06-14T04:54:00;4.22;;;2.88;;
79668;SDS011;69136;52.614;6.976;2023-06-14T04:56:45;5.40;;;2.35;;
79668;SDS011;69136;52.614;6.976;2023-06-14T04:59:30;6.25;;;2.28;;
79668;SDS011;69136;52.614;6.976;2023-06-14T05:02:17;3.38;;;2.60;;
79668;SDS011;69136;52.614;6.976;2023-06-14T05:05:01;6.32;;;2.38;;
79668;SDS011;69136;52.614;6.976;2023-06-14T05:07:46;6.53;;;2.33;;
79668;SDS011;69136;52.614;6.976;2023-06-14T05:10:30;5.32;;;2.05;;
79668;SDS011;69136;52.614;6.976;2023-06-14T05:13:14;4.78;;;2.60;;
79668;SDS011;69136;52.614;6.976;2023-06-14T05:15:59;3.85;;;2.22;;
79668;SDS011;69136;52.614;6.976;2023-06-14T05:18:44;4.65;;;2.80;;
79668;SDS011;69136;52.614;6.976;2023-06-14T05:21:30;3.47;;;2.33;;
79668;SDS011;69136;52.614;6.976;2023-06-14T05:24:15;4.97;;;2.40;;
79668;SDS011;69136;52.614;6.976;2023-06-14T05:27:01;4.60;;;2.22;;
79668;SDS011;69136;52.614;6.976;2023-06-14T05:29:46;5.72;;;2.45;;
79668;SDS011;69136;52.614;6.976;2023-06-14T05:32:30;3.42;;;2.20;;
79668;SDS011;69136;52.614;6.976;2023-06-14T05:35:15;3.70;;;2.30;;
79668;SDS011;69136;52.614;6.976;2023-06-14T05:37:59;6.32;;;2.38;;
79668;SDS011;69136;52.614;6.976;2023-06-14T05:40:44;6.07;;;2.42;;
79668;SDS011;69136;52.614;6.976;2023-06-14T05:43:29;2.97;;;2.13;;
79668;SDS011;69136;52.614;6.976;2023-06-14T05:46:13;4.47;;;2.08;;
79668;SDS011;69136;52.614;6.976;2023-06-14T05:48:56;3.35;;;2.22;;
79668;SDS011;69136;52.614;6.976;2023-06-14T05:51:41;5.88;;;2.50;;
79668;SDS011;69136;52.614;6.976;2023-06-14T05:54:26;2.85;;;2.08;;
79668;SDS011;69136;52.614;6.976;2023-06-14T05:57:10;3.63;;;2.22;;
79668;SDS011;69136;52.614;6.976;2023-06-14T05:59:54;4.20;;;2.00;;
79668;SDS011;69136;52.614;6.976;2023-06-14T06:02:38;7.40;;;2.67;;
79668;SDS011;69136;52.614;6.976;2023-06-14T06:05:23;3.28;;;1.90;;
79668;SDS011;69136;52.614;6.976;2023-06-14T06:08:07;2.97;;;2.67;;
79668;SDS011;69136;52.614;6.976;2023-06-14T06:10:52;6.00;;;2.45;;
79668;SDS011;69136;52.614;6.976;2023-06-14T06:13:36;5.03;;;2.47;;
79668;SDS011;69136;52.614;6.976;2023-06-14T06:16:20;5.18;;;2.67;;
79668;SDS011;69136;52.614;6.976;2023-06-14T06:19:04;3.80;;;2.10;;
79668;SDS011;69136;52.614;6.976;2023-06-14T06:21:48;3.10;;;2.00;;
79668;SDS011;69136;52.614;6.976;2023-06-14T06:24:32;6.60;;;2.95;;
79668;SDS011;69136;52.614;6.976;2023-06-14T06:27:16;3.83;;;2.00;;
79668;SDS011;69136;52.614;6.976;2023-06-14T06:30:02;2.63;;;2.33;;
79668;SDS011;69136;52.614;6.976;2023-06-14T06:32:47;2.92;;;1.95;;
79668;SDS011;69136;52.614;6.976;2023-06-14T06:35:31;3.92;;;1.83;;
79668;SDS011;69136;52.614;6.976;2023-06-14T06:38:17;2.75;;;1.88;;
79668;SDS011;69136;52.614;6.976;2023-06-14T06:41:02;4.03;;;1.73;;
79668;SDS011;69136;52.614;6.976;2023-06-14T06:43:46;2.28;;;1.80;;
79668;SDS011;69136;52.614;6.976;2023-06-14T06:46:34;3.05;;;2.05;;
79668;SDS011;69136;52.614;6.976;2023-06-14T06:49:19;4.45;;;2.00;;
79668;SDS011;69136;52.614;6.976;2023-06-14T06:52:04;3.97;;;2.03;;
79668;SDS011;69136;52.614;6.976;2023-06-14T06:54:49;4.18;;;2.08;;
79668;SDS011;69136;52.614;6.976;2023-06-14T06:57:38;3.78;;;1.90;;
79668;SDS011;69136;52.614;6.976;2023-06-14T07:00:22;3.55;;;1.83;;
79668;SDS011;69136;52.614;6.976;2023-06-14T07:03:06;4.07;;;2.00;;
79668;SDS011;69136;52.614;6.976;2023-06-14T07:05:51;2.97;;;1.70;;
79668;SDS011;69136;52.614;6.976;2023-06-14T07:08:35;3.90;;;1.90;;
79668;SDS011;69136;52.614;6.976;2023-06-14T07:11:19;4.97;;;1.77;;
79668;SDS011;69136;52.614;6.976;2023-06-14T07:14:03;4.43;;;1.88;;
79668;SDS011;69136;52.614;6.976;2023-06-14T07:16:47;5.32;;;2.33;;
79668;SDS011;69136;52.614;6.976;2023-06-14T07:19:33;2.25;;;1.55;;
79668;SDS011;69136;52.614;6.976;2023-06-14T07:22:17;3.90;;;2.25;;
79668;SDS011;69136;52.614;6.976;2023-06-14T07:25:01;3.60;;;1.65;;
79668;SDS011;69136;52.614;6.976;2023-06-14T07:27:46;4.55;;;1.75;;
79668;SDS011;69136;52.614;6.976;2023-06-14T07:30:30;3.25;;;1.67;;
79668;SDS011;69136;52.614;6.976;2023-06-14T07:33:15;3.42;;;1.63;;
79668;SDS011;69136;52.614;6.976;2023-06-14T07:35:59;3.42;;;1.90;;
79668;SDS011;69136;52.614;6.976;2023-06-14T07:38:43;2.10;;;1.75;;
79668;SDS011;69136;52.614;6.976;2023-06-14T07:41:27;3.72;;;1.58;;
79668;SDS011;69136;52.614;6.976;2023-06-14T07:44:11;3.97;;;2.22;;
79668;SDS011;69136;52.614;6.976;2023-06-14T07:46:56;2.30;;;1.60;;
79668;SDS011;69136;52.614;6.976;2023-06-14T07:49:42;3.95;;;1.52;;
79668;SDS011;69136;52.614;6.976;2023-06-14T07:52:26;2.38;;;1.60;;
79668;SDS011;69136;52.614;6.976;2023-06-14T07:55:09;2.03;;;1.50;;
79668;SDS011;69136;52.614;6.976;2023-06-14T07:57:53;2.35;;;1.30;;
79668;SDS011;69136;52.614;6.976;2023-06-14T08:00:38;2.75;;;1.70;;
79668;SDS011;69136;52.614;6.976;2023-06-14T08:03:22;3.25;;;1.58;;
79668;SDS011;69136;52.614;6.976;2023-06-14T08:06:06;3.80;;;1.90;;
79668;SDS011;69136;52.614;6.976;2023-06-14T08:08:50;3.47;;;1.60;;
79668;SDS011;69136;52.614;6.976;2023-06-14T08:11:34;2.10;;;1.52;;
79668;SDS011;69136;52.614;6.976;2023-06-14T08:14:18;3.35;;;1.45;;
79668;SDS011;69136;52.614;6.976;2023-06-14T08:17:02;4.13;;;1.40;;
79668;SDS011;69136;52.614;6.976;2023-06-14T08:19:46;3.30;;;1.58;;
79668;SDS011;69136;52.614;6.976;2023-06-14T08:22:30;3.28;;;1.55;;
79668;SDS011;69136;52.614;6.976;2023-06-14T08:25:17;2.30;;;1.52;;
79668;SDS011;69136;52.614;6.976;2023-06-14T08:28:02;1.90;;;1.30;;
79668;SDS011;69136;52.614;6.976;2023-06-14T08:30:45;3.13;;;1.20;;
79668;SDS011;69136;52.614;6.976;2023-06-14T08:33:29;2.60;;;1.40;;
79668;SDS011;69136;52.614;6.976;2023-06-14T08:36:16;2.80;;;1.60;;
79668;SDS011;69136;52.614;6.976;2023-06-14T08:39:01;2.38;;;1.42;;
79668;SDS011;69136;52.614;6.976;2023-06-14T08:41:46;2.63;;;1.50;;
79668;SDS011;69136;52.614;6.976;2023-06-14T08:44:32;2.58;;;1.40;;
79668;SDS011;69136;52.614;6.976;2023-06-14T08:47:16;2.83;;;1.40;;
79668;SDS011;69136;52.614;6.976;2023-06-14T08:50:03;3.90;;;1.60;;
79668;SDS011;69136;52.614;6.976;2023-06-14T08:52:48;2.85;;;1.20;;
79668;SDS011;69136;52.614;6.976;2023-06-14T08:58:23;2.97;;;1.50;;
79668;SDS011;69136;52.614;6.976;2023-06-14T09:01:08;3.00;;;1.45;;
79668;SDS011;69136;52.614;6.976;2023-06-14T09:03:53;4.70;;;1.30;;
79668;SDS011;69136;52.614;6.976;2023-06-14T09:06:39;1.25;;;1.15;;
79668;SDS011;69136;52.614;6.976;2023-06-14T09:09:24;2.03;;;1.42;;
79668;SDS011;69136;52.614;6.976;2023-06-14T09:12:10;3.53;;;1.93;;
79668;SDS011;69136;52.614;6.976;2023-06-14T09:14:56;3.28;;;1.60;;
79668;SDS011;69136;52.614;6.976;2023-06-14T09:17:41;2.30;;;1.23;;
79668;SDS011;69136;52.614;6.976;2023-06-14T09:20:25;1.77;;;1.35;;
79668;SDS011;69136;52.614;6.976;2023-06-14T09:23:09;3.60;;;1.60;;
79668;SDS011;69136;52.614;6.976;2023-06-14T09:25:53;2.17;;;1.60;;
79668;SDS011;69136;52.614;6.976;2023-06-14T09:28:43;4.97;;;1.60;;
79668;SDS011;69136;52.614;6.976;2023-06-14T09:31:28;3.25;;;1.30;;
79668;SDS011;69136;52.614;6.976;2023-06-14T09:34:15;2.47;;;1.40;;
79668;SDS011;69136;52.614;6.976;2023-06-14T09:37:00;5.40;;;1.70;;
79668;SDS011;69136;52.614;6.976;2023-06-14T09:39:51;4.03;;;1.45;;
79668;SDS011;69136;52.614;6.976;2023-06-14T09:42:35;2.10;;;1.45;;
79668;SDS011;69136;52.614;6.976;2023-06-14T09:45:20;3.38;;;1.40;;
79668;SDS011;69136;52.614;6.976;2023-06-14T09:48:06;3.33;;;1.13;;
79668;SDS011;69136;52.614;6.976;2023-06-14T09:50:52;2.50;;;1.50;;
79668;SDS011;69136;52.614;6.976;2023-06-14T09:53:38;1.92;;;1.38;;
79668;SDS011;69136;52.614;6.976;2023-06-14T09:56:57;2.83;;;1.38;;
79668;SDS011;69136;52.614;6.976;2023-06-14T09:59:34;2.03;;;1.45;;
79668;SDS011;69136;52.614;6.976;2023-06-14T10:05:11;3.33;;;1.35;;
79668;SDS011;69136;52.614;6.976;2023-06-14T10:07:59;1.90;;;1.30;;
79668;SDS011;69136;52.614;6.976;2023-06-14T10:10:44;3.47;;;1.50;;
79668;SDS011;69136;52.614;6.976;2023-06-14T10:13:29;2.17;;;1.35;;
79668;SDS011;69136;52.614;6.976;2023-06-14T10:16:30;5.82;;;1.67;;
79668;SDS011;69136;52.614;6.976;2023-06-14T10:19:20;5.18;;;1.65;;
79668;SDS011;69136;52.614;6.976;2023-06-14T10:22:09;3.30;;;1.33;;
79668;SDS011;69136;52.614;6.976;2023-06-14T10:24:55;3.80;;;1.58;;
79668;SDS011;69136;52.614;6.976;2023-06-14T10:27:40;3.28;;;1.58;;
79668;SDS011;69136;52.614;6.976;2023-06-14T10:30:29;5.10;;;1.40;;
79668;SDS011;69136;52.614;6.976;2023-06-14T10:33:13;3.05;;;1.52;;
79668;SDS011;69136;52.614;6.976;2023-06-14T10:41:58;3.33;;;1.15;;
79668;SDS011;69136;52.614;6.976;2023-06-14T10:44:45;3.17;;;1.27;;
79668;SDS011;69136;52.614;6.976;2023-06-14T10:47:36;4.00;;;1.48;;
79668;SDS011;69136;52.614;6.976;2023-06-14T10:50:27;2.53;;;1.42;;
79668;SDS011;69136;52.614;6.976;2023-06-14T10:53:21;3.28;;;1.27;;
79668;SDS011;69136;52.614;6.976;2023-06-14T10:56:06;2.10;;;1.65;;
79668;SDS011;69136;52.614;6.976;2023-06-14T10:58:51;2.33;;;1.40;;
79668;SDS011;69136;52.614;6.976;2023-06-14T11:01:36;2.38;;;1.55;;
79668;SDS011;69136;52.614;6.976;2023-06-14T11:04:21;3.35;;;1.40;;
79668;SDS011;69136;52.614;6.976;2023-06-14T11:07:19;2.35;;;1.38;;
79668;SDS011;69136;52.614;6.976;2023-06-14T11:10:37;2.90;;;1.27;;
79668;SDS011;69136;52.614;6.976;2023-06-14T11:13:24;3.97;;;1.40;;
79668;SDS011;69136;52.614;6.976;2023-06-14T11:16:17;4.78;;;1.70;;
79668;SDS011;69136;52.614;6.976;2023-06-14T11:19:04;4.43;;;1.40;;
79668;SDS011;69136;52.614;6.976;2023-06-14T11:21:49;1.83;;;1.52;;
79668;SDS011;69136;52.614;6.976;2023-06-14T11:24:33;2.22;;;1.40;;
79668;SDS011;69136;52.614;6.976;2023-06-14T11:27:17;2.10;;;1.27;;
79668;SDS011;69136;52.614;6.976;2023-06-14T11:30:02;2.90;;;1.33;;
79668;SDS011;69136;52.614;6.976;2023-06-14T11:32:48;2.80;;;1.77;;
79668;SDS011;69136;52.614;6.976;2023-06-14T11:35:33;2.38;;;1.50;;
79668;SDS011;69136;52.614;6.976;2023-06-14T11:38:18;2.00;;;1.45;;
79668;SDS011;69136;52.614;6.976;2023-06-14T11:41:02;4.50;;;1.48;;
79668;SDS011;69136;52.614;6.976;2023-06-14T11:43:46;6.43;;;1.48;;
79668;SDS011;69136;52.614;6.976;2023-06-14T11:46:30;1.95;;;1.35;;
79668;SDS011;69136;52.614;6.976;2023-06-14T11:49:13;6.47;;;1.42;;
79668;SDS011;69136;52.614;6.976;2023-06-14T11:51:57;4.25;;;1.50;;
79668;SDS011;69136;52.614;6.976;2023-06-14T11:54:41;2.35;;;1.50;;
79668;SDS011;69136;52.614;6.976;2023-06-14T11:57:26;2.70;;;1.50;;
79668;SDS011;69136;52.614;6.976;2023-06-14T12:00:10;2.42;;;1.55;;
79668;SDS011;69136;52.614;6.976;2023-06-14T12:02:59;2.35;;;1.23;;
79668;SDS011;69136;52.614;6.976;2023-06-14T12:05:44;3.28;;;1.40;;
79668;SDS011;69136;52.614;6.976;2023-06-14T12:08:34;3.47;;;1.58;;
79668;SDS011;69136;52.614;6.976;2023-06-14T12:11:23;3.90;;;1.50;;
79668;SDS011;69136;52.614;6.976;2023-06-14T12:14:08;3.10;;;1.60;;
79668;SDS011;69136;52.614;6.976;2023-06-14T12:17:03;1.55;;;1.23;;
79668;SDS011;69136;52.614;6.976;2023-06-14T12:22:33;1.73;;;1.30;;
79668;SDS011;69136;52.614;6.976;2023-06-14T12:25:27;3.25;;;1.40;;
79668;SDS011;69136;52.614;6.976;2023-06-14T12:28:17;3.55;;;1.25;;
79668;SDS011;69136;52.614;6.976;2023-06-14T12:31:01;5.07;;;1.60;;
79668;SDS011;69136;52.614;6.976;2023-06-14T12:33:46;2.25;;;1.20;;
79668;SDS011;69136;52.614;6.976;2023-06-14T12:36:32;2.65;;;1.48;;
79668;SDS011;69136;52.614;6.976;2023-06-14T12:39:17;1.88;;;1.15;;
79668;SDS011;69136;52.614;6.976;2023-06-14T12:42:02;1.48;;;1.38;;
79668;SDS011;69136;52.614;6.976;2023-06-14T12:44:47;2.92;;;1.60;;
79668;SDS011;69136;52.614;6.976;2023-06-14T12:47:31;4.53;;;1.45;;
79668;SDS011;69136;52.614;6.976;2023-06-14T12:50:15;3.70;;;1.25;;
79668;SDS011;69136;52.614;6.976;2023-06-14T12:52:59;2.20;;;1.60;;
79668;SDS011;69136;52.614;6.976;2023-06-14T12:55:44;1.70;;;1.60;;
79668;SDS011;69136;52.614;6.976;2023-06-14T12:58:28;2.97;;;1.38;;
79668;SDS011;69136;52.614;6.976;2023-06-14T13:01:12;2.70;;;1.40;;
79668;SDS011;69136;52.614;6.976;2023-06-14T13:03:56;4.13;;;1.40;;
79668;SDS011;69136;52.614;6.976;2023-06-14T13:06:40;2.58;;;1.20;;
79668;SDS011;69136;52.614;6.976;2023-06-14T13:09:24;3.95;;;1.45;;
79668;SDS011;69136;52.614;6.976;2023-06-14T13:12:09;2.05;;;1.58;;
79668;SDS011;69136;52.614;6.976;2023-06-14T13:14:55;2.47;;;1.40;;
79668;SDS011;69136;52.614;6.976;2023-06-14T13:17:39;3.10;;;1.50;;
79668;SDS011;69136;52.614;6.976;2023-06-14T13:20:24;3.20;;;1.50;;
79668;SDS011;69136;52.614;6.976;2023-06-14T13:23:08;2.17;;;1.13;;
79668;SDS011;69136;52.614;6.976;2023-06-14T13:25:53;2.90;;;1.30;;
79668;SDS011;69136;52.614;6.976;2023-06-14T13:28:37;3.75;;;1.15;;
79668;SDS011;69136;52.614;6.976;2023-06-14T13:31:21;2.58;;;1.50;;
79668;SDS011;69136;52.614;6.976;2023-06-14T13:34:05;2.30;;;1.15;;
79668;SDS011;69136;52.614;6.976;2023-06-14T13:36:49;2.33;;;1.25;;
79668;SDS011;69136;52.614;6.976;2023-06-14T13:39:34;4.18;;;1.50;;
79668;SDS011;69136;52.614;6.976;2023-06-14T13:42:20;2.35;;;1.40;;
79668;SDS011;69136;52.614;6.976;2023-06-14T13:45:04;2.28;;;1.00;;
79668;SDS011;69136;52.614;6.976;2023-06-14T13:47:49;2.53;;;1.40;;
79668;SDS011;69136;52.614;6.976;2023-06-14T13:50:33;3.15;;;1.30;;
79668;SDS011;69136;52.614;6.976;2023-06-14T13:53:17;1.95;;;0.98;;
79668;SDS011;69136;52.614;6.976;2023-06-14T13:56:02;2.45;;;1.40;;
79668;SDS011;69136;52.614;6.976;2023-06-14T13:58:46;2.08;;;1.10;;
79668;SDS011;69136;52.614;6.976;2023-06-14T14:01:30;2.80;;;1.20;;
79668;SDS011;69136;52.614;6.976;2023-06-14T14:04:15;2.22;;;1.40;;
79668;SDS011;69136;52.614;6.976;2023-06-14T14:06:59;3.47;;;1.20;;
79668;SDS011;69136;52.614;6.976;2023-06-14T14:09:42;1.83;;;1.00;;
79668;SDS011;69136;52.614;6.976;2023-06-14T14:12:27;1.27;;;1.10;;
79668;SDS011;69136;52.614;6.976;2023-06-14T14:15:12;3.88;;;1.20;;
79668;SDS011;69136;52.614;6.976;2023-06-14T14:17:58;1.95;;;1.20;;
79668;SDS011;69136;52.614;6.976;2023-06-14T14:20:42;2.92;;;1.50;;
79668;SDS011;69136;52.614;6.976;2023-06-14T14:23:27;1.63;;;1.50;;
79668;SDS011;69136;52.614;6.976;2023-06-14T14:26:11;1.40;;;1.20;;
79668;SDS011;69136;52.614;6.976;2023-06-14T14:28:55;4.20;;;1.55;;
79668;SDS011;69136;52.614;6.976;2023-06-14T14:31:39;4.57;;;1.50;;
79668;SDS011;69136;52.614;6.976;2023-06-14T14:34:24;2.75;;;1.50;;
79668;SDS011;69136;52.614;6.976;2023-06-14T14:37:08;2.53;;;1.75;;
79668;SDS011;69136;52.614;6.976;2023-06-14T14:39:52;2.00;;;1.33;;
79668;SDS011;69136;52.614;6.976;2023-06-14T14:42:36;2.75;;;1.30;;
79668;SDS011;69136;52.614;6.976;2023-06-14T14:45:21;2.05;;;1.40;;
79668;SDS011;69136;52.614;6.976;2023-06-14T14:48:05;2.08;;;1.25;;
79668;SDS011;69136;52.614;6.976;2023-06-14T14:50:49;1.65;;;1.30;;
79668;SDS011;69136;52.614;6.976;2023-06-14T14:53:33;2.17;;;1.40;;
79668;SDS011;69136;52.614;6.976;2023-06-14T14:56:17;2.47;;;1.30;;
79668;SDS011;69136;52.614;6.976;2023-06-14T14:59:01;4.40;;;1.30;;
79668;SDS011;69136;52.614;6.976;2023-06-14T15:01:46;3.63;;;1.25;;
79668;SDS011;69136;52.614;6.976;2023-06-14T15:04:30;2.22;;;1.60;;
79668;SDS011;69136;52.614;6.976;2023-06-14T15:07:14;3.38;;;1.50;;
79668;SDS011;69136;52.614;6.976;2023-06-14T15:09:59;1.85;;;1.58;;
79668;SDS011;69136;52.614;6.976;2023-06-14T15:12:43;1.75;;;1.48;;
79668;SDS011;69136;52.614;6.976;2023-06-14T15:15:27;1.90;;;1.67;;
79668;SDS011;69136;52.614;6.976;2023-06-14T15:18:11;2.75;;;1.55;;
79668;SDS011;69136;52.614;6.976;2023-06-14T15:20:55;2.90;;;1.50;;
79668;SDS011;69136;52.614;6.976;2023-06-14T15:23:39;3.85;;;1.38;;
79668;SDS011;69136;52.614;6.976;2023-06-14T15:26:23;3.03;;;1.80;;
79668;SDS011;69136;52.614;6.976;2023-06-14T15:29:08;4.90;;;2.20;;
79668;SDS011;69136;52.614;6.976;2023-06-14T15:31:52;2.00;;;1.40;;
79668;SDS011;69136;52.614;6.976;2023-06-14T15:34:38;2.13;;;1.67;;
79668;SDS011;69136;52.614;6.976;2023-06-14T15:37:22;2.78;;;1.58;;
79668;SDS011;69136;52.614;6.976;2023-06-14T15:40:06;2.55;;;1.35;;
79668;SDS011;69136;52.614;6.976;2023-06-14T15:42:51;3.58;;;1.63;;
79668;SDS011;69136;52.614;6.976;2023-06-14T15:45:35;1.80;;;1.50;;
79668;SDS011;69136;52.614;6.976;2023-06-14T15:48:21;4.90;;;1.67;;
79668;SDS011;69136;52.614;6.976;2023-06-14T15:51:05;1.67;;;1.58;;
79668;SDS011;69136;52.614;6.976;2023-06-14T15:53:49;6.65;;;1.50;;
79668;SDS011;69136;52.614;6.976;2023-06-14T15:56:33;3.15;;;2.00;;
79668;SDS011;69136;52.614;6.976;2023-06-14T15:59:17;3.10;;;1.90;;
79668;SDS011;69136;52.614;6.976;2023-06-14T16:02:01;3.47;;;1.85;;
79668;SDS011;69136;52.614;6.976;2023-06-14T16:04:45;3.03;;;1.42;;
79668;SDS011;69136;52.614;6.976;2023-06-14T16:07:29;3.63;;;1.65;;
79668;SDS011;69136;52.614;6.976;2023-06-14T16:10:13;3.95;;;1.73;;
79668;SDS011;69136;52.614;6.976;2023-06-14T16:12:57;1.80;;;1.60;;
79668;SDS011;69136;52.614;6.976;2023-06-14T16:15:41;3.72;;;1.80;;
79668;SDS011;69136;52.614;6.976;2023-06-14T16:18:25;5.75;;;2.30;;
79668;SDS011;69136;52.614;6.976;2023-06-14T16:21:09;3.00;;;1.50;;
79668;SDS011;69136;52.614;6.976;2023-06-14T16:23:54;3.50;;;1.92;;
79668;SDS011;69136;52.614;6.976;2023-06-14T16:26:38;2.40;;;1.70;;
79668;SDS011;69136;52.614;6.976;2023-06-14T16:29:22;2.97;;;1.63;;
79668;SDS011;69136;52.614;6.976;2023-06-14T16:32:07;2.97;;;2.00;;
79668;SDS011;69136;52.614;6.976;2023-06-14T16:34:52;2.53;;;1.90;;
79668;SDS011;69136;52.614;6.976;2023-06-14T16:37:36;4.10;;;1.80;;
79668;SDS011;69136;52.614;6.976;2023-06-14T16:40:20;4.60;;;1.85;;
79668;SDS011;69136;52.614;6.976;2023-06-14T16:43:04;1.98;;;1.70;;
79668;SDS011;69136;52.614;6.976;2023-06-14T16:45:48;6.40;;;1.95;;
79668;SDS011;69136;52.614;6.976;2023-06-14T16:48:32;3.55;;;1.85;;
79668;SDS011;69136;52.614;6.976;2023-06-14T16:51:16;2.55;;;1.77;;